This is the latest recevied weather packets stored in our database for station/object SP8AQK-13. If no packets are shown the sender has not sent any weather packets the latest 10 day(s).
| Time | Temp. | Humidity | Pressure | Rain* | Wind** | Luminosity | Snow |
|---|---|---|---|---|---|---|---|
| 1778153018 | 23.33° C | 47% | 1011.7 hPa | - | - | - | - |
| 1778151818 | 22.78° C | 48% | 1011.6 hPa | - | - | - | - |
| 1778150617 | 23.89° C | 47% | 1011.7 hPa | - | - | - | - |
| 1778149416 | 23.33° C | 47% | 1011.5 hPa | - | - | - | - |
| 1778148216 | 22.78° C | 47% | 1011.6 hPa | - | - | - | - |
| 1778147015 | 23.33° C | 49% | 1011.3 hPa | - | - | - | - |
| 1778145814 | 22.78° C | 53% | 1011.3 hPa | - | - | - | - |
| 1778144613 | 22.22° C | 59% | 1011.4 hPa | - | - | - | - |
| 1778143413 | 21.11° C | 66% | 1011.2 hPa | - | - | - | - |
| 1778142212 | 20° C | 71% | 1011.3 hPa | - | - | - | - |
| 1778141011 | 18.89° C | 76% | 1011.5 hPa | - | - | - | - |
| 1778139810 | 18.89° C | 76% | 1011.6 hPa | - | - | - | - |
| 1778138610 | 18.89° C | 75% | 1011.3 hPa | - | - | - | - |
| 1778137409 | 18.33° C | 78% | 1011.4 hPa | - | - | - | - |
| 1778136208 | 17.78° C | 82% | 1011.5 hPa | - | - | - | - |
| 1778135007 | 17.22° C | 84% | 1011.4 hPa | - | - | - | - |
| 1778104989 | 14.44° C | 77% | 1010 hPa | - | - | - | - |
| 1778103789 | 15.56° C | 70% | 1009.7 hPa | - | - | - | - |
| 1778102588 | 16.11° C | 67% | 1009.7 hPa | - | - | - | - |
| 1778101387 | 16.67° C | 62% | 1009.7 hPa | - | - | - | - |
| 1778100187 | 17.22° C | 60% | 1009.5 hPa | - | - | - | - |
| 1778098986 | 17.22° C | 60% | 1009.3 hPa | - | - | - | - |
| 1778097785 | 17.22° C | 59% | 1009.3 hPa | - | - | - | - |
| 1778096584 | 18.33° C | 56% | 1009.3 hPa | - | - | - | - |
| 1778095384 | 18.89° C | 54% | 1009.2 hPa | - | - | - | - |
* Rain since midnight (hover to see other rain measurements)
** Current wind speed in m/s (hover to see current wind gust speed)